Time;durP1;ratioP1;P1;durP2;ratioP2;P2;SDS_P1;SDS_P2;PMS_P1;PMS_P2;Temp;Humidity;BMP_temperature;BMP_pressure;BME280_temperature;BME280_humidity;BME280_pressure;Samples;Min_cycle;Max_cycle;Signal;HPM_P1;HPM_P2
2023/04/06 00:01:49;;;;;;;3.10;2.05;;;;;;;;;;5052249;28;20024;-69
2023/04/06 00:04:15;;;;;;;3.35;1.80;;;;;;;;;;5052186;28;20029;-69
2023/04/06 00:06:42;;;;;;;5.70;1.63;;;;;;;;;;5051866;28;20039;-69
2023/04/06 00:09:08;;;;;;;3.83;2.00;;;;;;;;;;5052194;28;20025;-69
2023/04/06 00:11:34;;;;;;;2.72;1.90;;;;;;;;;;5052217;28;20490;-69
2023/04/06 00:14:01;;;;;;;2.97;1.83;;;;;;;;;;5051993;28;20021;-69
2023/04/06 00:16:27;;;;;;;2.85;1.38;;;;;;;;;;5052211;28;20029;-69
2023/04/06 00:18:53;;;;;;;4.40;1.88;;;;;;;;;;5052096;28;20411;-69
2023/04/06 00:21:20;;;;;;;4.55;2.03;;;;;;;;;;5050500;28;20409;-69
2023/04/06 00:23:46;;;;;;;3.72;1.92;;;;;;;;;;5051939;28;20050;-69
2023/04/06 00:26:12;;;;;;;7.10;1.90;;;;;;;;;;5052055;28;20027;-69
2023/04/06 00:28:39;;;;;;;2.83;1.70;;;;;;;;;;5051919;28;20029;-69
2023/04/06 00:31:05;;;;;;;3.05;1.83;;;;;;;;;;5051579;28;20106;-69
2023/04/06 00:33:31;;;;;;;3.42;2.30;;;;;;;;;;5052292;28;20040;-69
2023/04/06 00:35:58;;;;;;;3.83;1.80;;;;;;;;;;5051536;28;20024;-69
2023/04/06 00:38:24;;;;;;;5.90;2.00;;;;;;;;;;5051999;28;20037;-69
2023/04/06 00:40:51;;;;;;;3.47;2.08;;;;;;;;;;5051802;28;20023;-69
2023/04/06 00:43:17;;;;;;;2.45;1.65;;;;;;;;;;5051636;28;20481;-69
2023/04/06 00:45:43;;;;;;;2.40;1.70;;;;;;;;;;5051675;28;20025;-69
2023/04/06 00:48:10;;;;;;;3.70;2.22;;;;;;;;;;5051652;28;20039;-69
2023/04/06 00:50:36;;;;;;;3.97;1.90;;;;;;;;;;5051313;28;20028;-69
2023/04/06 00:53:02;;;;;;;2.83;1.77;;;;;;;;;;5050487;28;20032;-69
2023/04/06 00:55:29;;;;;;;3.38;1.98;;;;;;;;;;5052733;28;20027;-69
2023/04/06 00:57:57;;;;;;;4.45;2.53;;;;;;;;;;5055681;28;20028;-69
2023/04/06 01:00:23;;;;;;;4.10;1.70;;;;;;;;;;5055336;28;20043;-69
2023/04/06 01:02:50;;;;;;;3.75;2.25;;;;;;;;;;5055278;28;20037;-69
2023/04/06 01:05:16;;;;;;;5.20;1.77;;;;;;;;;;5055219;28;20066;-69
2023/04/06 01:07:43;;;;;;;2.95;1.90;;;;;;;;;;5055536;28;20027;-69
2023/04/06 01:10:09;;;;;;;3.67;2.03;;;;;;;;;;5055512;28;20035;-69
2023/04/06 01:12:37;;;;;;;3.42;2.05;;;;;;;;;;5055126;28;20017;-69
2023/04/06 01:15:04;;;;;;;3.42;1.90;;;;;;;;;;5055284;28;20017;-69
2023/04/06 01:17:30;;;;;;;3.38;2.08;;;;;;;;;;5055239;28;20029;-69
2023/04/06 01:19:56;;;;;;;6.05;2.30;;;;;;;;;;5054890;28;20066;-69
2023/04/06 01:22:25;;;;;;;3.42;1.80;;;;;;;;;;5054702;28;20036;-69
2023/04/06 01:24:51;;;;;;;5.78;2.20;;;;;;;;;;5055197;28;20032;-70
2023/04/06 01:27:17;;;;;;;3.75;2.00;;;;;;;;;;5054746;28;20499;-69
2023/04/06 01:29:44;;;;;;;4.75;2.03;;;;;;;;;;5054682;28;20052;-69
2023/04/06 01:32:10;;;;;;;3.88;2.10;;;;;;;;;;5054723;28;20025;-69
2023/04/06 01:34:37;;;;;;;2.85;1.85;;;;;;;;;;5054411;28;20013;-69
2023/04/06 01:37:03;;;;;;;2.88;1.83;;;;;;;;;;5054644;28;20025;-69
2023/04/06 01:39:29;;;;;;;4.97;2.03;;;;;;;;;;5054749;28;20393;-69
2023/04/06 01:41:56;;;;;;;4.70;1.92;;;;;;;;;;5054732;28;20021;-69
2023/04/06 01:44:22;;;;;;;3.60;1.92;;;;;;;;;;5054538;28;20512;-69
2023/04/06 01:46:48;;;;;;;6.05;2.08;;;;;;;;;;5054472;28;20359;-69
2023/04/06 01:49:15;;;;;;;2.92;2.10;;;;;;;;;;5054133;28;20039;-69
2023/04/06 01:51:41;;;;;;;3.47;2.08;;;;;;;;;;5054307;28;20032;-68
2023/04/06 01:54:08;;;;;;;3.33;2.00;;;;;;;;;;5054623;28;20025;-68
2023/04/06 01:56:35;;;;;;;3.67;2.03;;;;;;;;;;5054220;28;20025;-69
2023/04/06 01:59:01;;;;;;;3.42;2.00;;;;;;;;;;5053013;28;20029;-69
2023/04/06 02:01:27;;;;;;;4.75;1.85;;;;;;;;;;5054148;28;20021;-69
2023/04/06 02:03:54;;;;;;;2.17;1.73;;;;;;;;;;5053853;28;20033;-69
2023/04/06 02:06:20;;;;;;;2.85;1.63;;;;;;;;;;5053622;28;20042;-69
2023/04/06 02:08:46;;;;;;;4.45;1.92;;;;;;;;;;5053297;28;20086;-68
2023/04/06 02:11:13;;;;;;;4.45;2.08;;;;;;;;;;5054638;28;20020;-69
2023/04/06 02:13:39;;;;;;;4.05;1.80;;;;;;;;;;5054043;28;20486;-69
2023/04/06 02:16:06;;;;;;;3.03;2.08;;;;;;;;;;5053857;28;20029;-69
2023/04/06 02:18:32;;;;;;;3.95;2.00;;;;;;;;;;5053641;28;20025;-69
2023/04/06 02:20:58;;;;;;;3.35;2.00;;;;;;;;;;5053744;28;20367;-69
2023/04/06 02:23:25;;;;;;;3.92;1.92;;;;;;;;;;5053811;28;20033;-69
2023/04/06 02:25:51;;;;;;;5.10;2.45;;;;;;;;;;5053877;28;20031;-69
2023/04/06 02:28:17;;;;;;;4.75;2.33;;;;;;;;;;5053526;28;20025;-69
2023/04/06 02:30:44;;;;;;;3.22;2.10;;;;;;;;;;5053368;28;20037;-69
2023/04/06 02:33:10;;;;;;;4.80;2.40;;;;;;;;;;5053933;28;20039;-69
2023/04/06 02:35:36;;;;;;;5.47;2.00;;;;;;;;;;5053657;28;20028;-69
2023/04/06 02:38:03;;;;;;;3.88;1.95;;;;;;;;;;5053691;28;20028;-69
2023/04/06 02:40:29;;;;;;;4.60;2.28;;;;;;;;;;5053671;28;20027;-69
2023/04/06 02:42:56;;;;;;;2.70;2.00;;;;;;;;;;5053607;28;20036;-69
2023/04/06 02:45:22;;;;;;;4.35;2.20;;;;;;;;;;5053255;28;20025;-69
2023/04/06 02:47:48;;;;;;;4.18;2.00;;;;;;;;;;5053303;28;20017;-69
2023/04/06 02:50:15;;;;;;;2.97;2.17;;;;;;;;;;5053361;28;20473;-69
2023/04/06 02:52:42;;;;;;;4.75;2.28;;;;;;;;;;5053244;28;20496;-69
2023/04/06 02:55:08;;;;;;;3.03;2.10;;;;;;;;;;5053180;28;20033;-69
2023/04/06 02:57:35;;;;;;;3.30;2.28;;;;;;;;;;5053133;28;20032;-69
2023/04/06 03:00:01;;;;;;;3.78;2.40;;;;;;;;;;5053099;28;20036;-69
2023/04/06 03:02:27;;;;;;;3.92;3.10;;;;;;;;;;5052930;28;20029;-69
2023/04/06 03:04:54;;;;;;;4.80;3.08;;;;;;;;;;5052983;28;20035;-69
2023/04/06 03:07:20;;;;;;;4.10;2.35;;;;;;;;;;5052893;28;20009;-69
2023/04/06 03:09:47;;;;;;;5.00;2.83;;;;;;;;;;5053088;28;20025;-69
2023/04/06 03:12:13;;;;;;;3.05;2.40;;;;;;;;;;5052909;28;20016;-69
2023/04/06 03:14:39;;;;;;;4.03;2.70;;;;;;;;;;5052533;28;20033;-69
2023/04/06 03:17:06;;;;;;;6.13;2.80;;;;;;;;;;5052713;28;20028;-69
2023/04/06 03:19:32;;;;;;;6.38;2.78;;;;;;;;;;5052736;28;20035;-69
2023/04/06 03:21:58;;;;;;;4.13;2.85;;;;;;;;;;5052622;28;20025;-69
2023/04/06 03:24:25;;;;;;;4.55;2.80;;;;;;;;;;5052527;28;20033;-69
2023/04/06 03:26:51;;;;;;;3.60;2.90;;;;;;;;;;5052593;28;20385;-69
2023/04/06 03:29:17;;;;;;;3.65;2.78;;;;;;;;;;5052087;28;20039;-69
2023/04/06 03:31:44;;;;;;;3.85;2.53;;;;;;;;;;5052617;28;20028;-69
2023/04/06 03:34:10;;;;;;;3.53;2.58;;;;;;;;;;5052596;28;20031;-68
2023/04/06 03:36:36;;;;;;;7.03;3.03;;;;;;;;;;5052497;28;20032;-69
2023/04/06 03:39:03;;;;;;;4.53;2.85;;;;;;;;;;5052361;28;20029;-69
2023/04/06 03:41:29;;;;;;;3.65;2.58;;;;;;;;;;5052479;28;20021;-69
2023/04/06 03:43:56;;;;;;;3.28;2.50;;;;;;;;;;5052104;28;20041;-69
2023/04/06 03:46:22;;;;;;;5.07;2.30;;;;;;;;;;5052625;28;20029;-69
2023/04/06 03:48:49;;;;;;;4.50;2.75;;;;;;;;;;5052479;28;20029;-69
2023/04/06 03:51:15;;;;;;;6.15;2.83;;;;;;;;;;5052347;28;20039;-69
2023/04/06 03:53:41;;;;;;;4.05;2.28;;;;;;;;;;5052409;28;20036;-69
2023/04/06 03:56:08;;;;;;;4.65;2.35;;;;;;;;;;5052238;28;20485;-69
2023/04/06 03:58:35;;;;;;;7.10;2.83;;;;;;;;;;5051792;28;20039;-69
2023/04/06 04:01:01;;;;;;;3.22;2.38;;;;;;;;;;5052044;28;20017;-69
2023/04/06 04:03:27;;;;;;;2.88;2.15;;;;;;;;;;5052057;28;20033;-69
2023/04/06 04:05:57;;;;;;;7.80;2.20;;;;;;;;;;5052261;28;20029;-69
2023/04/06 04:08:24;;;;;;;5.30;1.77;;;;;;;;;;5051872;28;20025;-69
2023/04/06 04:10:50;;;;;;;5.45;2.10;;;;;;;;;;5052250;28;20256;-69
2023/04/06 04:13:17;;;;;;;2.47;1.63;;;;;;;;;;5051728;28;20641;-69
2023/04/06 04:15:43;;;;;;;3.40;2.40;;;;;;;;;;5051851;28;20025;-69
2023/04/06 04:18:09;;;;;;;4.80;2.00;;;;;;;;;;5051906;28;20035;-69
2023/04/06 04:20:36;;;;;;;4.47;2.30;;;;;;;;;;5052063;28;20024;-69
2023/04/06 04:23:02;;;;;;;5.65;2.28;;;;;;;;;;5051903;28;20489;-69
2023/04/06 04:25:28;;;;;;;2.90;2.05;;;;;;;;;;5052035;28;20021;-69
2023/04/06 04:27:55;;;;;;;3.80;2.22;;;;;;;;;;5051581;28;20458;-69
2023/04/06 04:30:21;;;;;;;2.58;2.05;;;;;;;;;;5052417;28;20055;-69
2023/04/06 04:32:48;;;;;;;3.25;2.08;;;;;;;;;;5055968;28;20074;-69
2023/04/06 04:35:14;;;;;;;3.22;1.98;;;;;;;;;;5055862;28;20020;-69
2023/04/06 04:37:41;;;;;;;4.82;2.17;;;;;;;;;;5055801;28;20017;-69
2023/04/06 04:40:08;;;;;;;4.70;2.58;;;;;;;;;;5055716;28;20397;-69
2023/04/06 04:42:34;;;;;;;5.47;2.33;;;;;;;;;;5055507;28;20496;-69
2023/04/06 04:45:01;;;;;;;4.45;2.28;;;;;;;;;;5055703;28;20039;-69
2023/04/06 04:47:27;;;;;;;3.00;2.35;;;;;;;;;;5055954;28;20028;-69
2023/04/06 04:49:53;;;;;;;4.20;2.05;;;;;;;;;;5055533;28;20494;-69
2023/04/06 04:52:20;;;;;;;4.75;2.20;;;;;;;;;;5055527;28;20496;-69
2023/04/06 04:54:47;;;;;;;5.72;2.30;;;;;;;;;;5055875;28;20029;-69
2023/04/06 04:57:14;;;;;;;5.43;2.10;;;;;;;;;;5055138;28;20099;-69
2023/04/06 04:59:40;;;;;;;3.65;2.10;;;;;;;;;;5055656;28;20027;-69
2023/04/06 05:02:06;;;;;;;3.63;2.35;;;;;;;;;;5055392;28;20400;-69
2023/04/06 05:04:33;;;;;;;2.80;1.90;;;;;;;;;;5055247;28;20037;-69
2023/04/06 05:07:03;;;;;;;4.15;2.10;;;;;;;;;;5055120;28;20017;-69
2023/04/06 05:09:32;;;;;;;3.70;2.07;;;;;;;;;;5055407;28;20029;-69
2023/04/06 05:12:00;;;;;;;3.47;2.10;;;;;;;;;;5054856;28;20024;-69
2023/04/06 05:14:26;;;;;;;8.15;2.33;;;;;;;;;;5055097;28;20401;-69
2023/04/06 05:16:53;;;;;;;3.92;2.25;;;;;;;;;;5055205;28;20025;-69
2023/04/06 05:19:19;;;;;;;3.53;2.53;;;;;;;;;;5054963;28;20033;-69
2023/04/06 05:21:45;;;;;;;4.05;2.28;;;;;;;;;;5055075;28;20111;-69
2023/04/06 05:24:12;;;;;;;4.90;2.03;;;;;;;;;;5054844;28;20048;-69
2023/04/06 05:26:38;;;;;;;4.95;2.60;;;;;;;;;;5054852;28;20024;-69
2023/04/06 05:29:04;;;;;;;4.45;2.20;;;;;;;;;;5055297;28;20028;-68
2023/04/06 05:31:31;;;;;;;3.47;2.00;;;;;;;;;;5054922;28;20033;-69
2023/04/06 05:33:57;;;;;;;3.30;1.67;;;;;;;;;;5054906;28;20032;-69
2023/04/06 05:36:24;;;;;;;3.88;2.22;;;;;;;;;;5054628;28;20032;-69
2023/04/06 05:38:52;;;;;;;4.03;2.53;;;;;;;;;;5054652;28;20043;-69
2023/04/06 05:41:20;;;;;;;9.68;2.67;;;;;;;;;;5054142;28;20436;-69
2023/04/06 05:43:46;;;;;;;5.63;2.58;;;;;;;;;;5054478;28;20404;-69
2023/04/06 05:46:12;;;;;;;4.07;2.53;;;;;;;;;;5054497;28;20031;-69
2023/04/06 05:48:39;;;;;;;7.10;2.70;;;;;;;;;;5054757;28;20107;-68
2023/04/06 05:51:06;;;;;;;7.22;2.85;;;;;;;;;;5054586;28;20021;-69
2023/04/06 05:53:32;;;;;;;6.80;2.55;;;;;;;;;;5054277;28;20032;-69
2023/04/06 05:56:02;;;;;;;5.75;2.60;;;;;;;;;;5052948;28;20025;-69
2023/04/06 05:58:29;;;;;;;7.45;2.30;;;;;;;;;;5054263;28;20055;-69
2023/04/06 06:00:59;;;;;;;3.03;2.17;;;;;;;;;;5054372;28;20021;-69
2023/04/06 06:03:25;;;;;;;4.28;2.00;;;;;;;;;;5054358;28;20047;-69
2023/04/06 06:05:52;;;;;;;4.05;2.15;;;;;;;;;;5054175;28;20013;-69
2023/04/06 06:08:18;;;;;;;3.78;1.92;;;;;;;;;;5053988;28;20032;-69
2023/04/06 06:10:44;;;;;;;4.93;2.00;;;;;;;;;;5054076;28;20021;-69
2023/04/06 06:13:11;;;;;;;5.40;2.28;;;;;;;;;;5054113;28;20032;-69
2023/04/06 06:15:37;;;;;;;4.25;2.55;;;;;;;;;;5043627;28;20021;-67
2023/04/06 06:18:03;;;;;;;3.38;2.30;;;;;;;;;;5043491;28;20464;-68
2023/04/06 06:20:30;;;;;;;8.77;2.42;;;;;;;;;;5043498;28;20020;-69
2023/04/06 06:22:56;;;;;;;6.65;2.03;;;;;;;;;;5051073;28;20396;-69
2023/04/06 06:25:22;;;;;;;7.05;3.10;;;;;;;;;;5044901;28;20490;-69
2023/04/06 06:27:49;;;;;;;9.98;2.90;;;;;;;;;;5053350;28;20020;-67
2023/04/06 06:30:15;;;;;;;9.02;2.30;;;;;;;;;;5052827;28;20049;-68
2023/04/06 06:32:42;;;;;;;8.07;2.40;;;;;;;;;;5047767;28;20514;-70
2023/04/06 06:35:08;;;;;;;6.53;2.35;;;;;;;;;;5032978;28;20028;-69
2023/04/06 06:37:35;;;;;;;5.30;2.50;;;;;;;;;;5052354;28;20496;-69
2023/04/06 06:40:01;;;;;;;6.53;2.30;;;;;;;;;;5050102;28;20043;-69
2023/04/06 06:42:27;;;;;;;4.50;2.60;;;;;;;;;;5052271;28;20035;-68
2023/04/06 06:44:54;;;;;;;9.57;2.95;;;;;;;;;;5052022;28;20033;-67
2023/04/06 06:47:21;;;;;;;6.10;3.08;;;;;;;;;;5045820;28;20044;-68
2023/04/06 06:49:47;;;;;;;7.38;3.22;;;;;;;;;;5052451;28;20043;-67
2023/04/06 06:52:16;;;;;;;7.15;2.97;;;;;;;;;;5051865;28;20021;-68
2023/04/06 06:54:43;;;;;;;6.88;3.30;;;;;;;;;;5041817;28;20025;-69
2023/04/06 06:57:09;;;;;;;12.52;3.83;;;;;;;;;;5038964;28;20021;-68
2023/04/06 06:59:36;;;;;;;7.03;2.75;;;;;;;;;;5052067;28;20040;-69
2023/04/06 07:02:02;;;;;;;4.30;2.50;;;;;;;;;;5051448;28;20389;-68
2023/04/06 07:04:28;;;;;;;8.70;2.58;;;;;;;;;;5051880;28;20409;-68
2023/04/06 07:06:55;;;;;;;4.53;2.75;;;;;;;;;;5042292;28;20039;-68
2023/04/06 07:09:22;;;;;;;7.00;2.72;;;;;;;;;;5050454;28;20031;-68
2023/04/06 07:11:48;;;;;;;7.18;2.58;;;;;;;;;;5051076;28;20021;-68
2023/04/06 07:14:16;;;;;;;6.05;2.50;;;;;;;;;;5051603;28;20025;-68
2023/04/06 07:16:44;;;;;;;6.88;2.70;;;;;;;;;;5051920;28;20055;-69
2023/04/06 07:19:10;;;;;;;5.15;2.63;;;;;;;;;;5049907;28;20388;-68
2023/04/06 07:21:37;;;;;;;6.57;2.88;;;;;;;;;;5050956;28;20025;-68
2023/04/06 07:24:03;;;;;;;5.97;2.50;;;;;;;;;;5045045;28;20094;-68
2023/04/06 07:26:30;;;;;;;12.35;3.15;;;;;;;;;;5049632;28;20469;-68
2023/04/06 07:28:56;;;;;;;8.48;2.55;;;;;;;;;;5051668;28;20486;-69
2023/04/06 07:31:22;;;;;;;14.25;2.88;;;;;;;;;;5050352;28;20047;-69
2023/04/06 07:33:49;;;;;;;9.98;2.80;;;;;;;;;;5051366;28;20029;-69
2023/04/06 07:36:16;;;;;;;7.15;3.65;;;;;;;;;;5048574;28;20025;-69
2023/04/06 07:38:42;;;;;;;14.02;6.07;;;;;;;;;;5033360;28;20021;-69
2023/04/06 07:41:08;;;;;;;9.80;3.25;;;;;;;;;;5051005;28;20401;-68
2023/04/06 07:43:35;;;;;;;6.03;2.50;;;;;;;;;;5051321;28;20040;-69
2023/04/06 07:46:02;;;;;;;10.07;2.47;;;;;;;;;;5044973;28;20013;-69
2023/04/06 07:48:28;;;;;;;14.70;2.67;;;;;;;;;;5050639;28;20017;-68
2023/04/06 07:51:01;;;;;;;9.13;2.88;;;;;;;;;;5049770;28;20032;-67
2023/04/06 07:53:27;;;;;;;6.68;2.60;;;;;;;;;;5051091;28;20504;-68
2023/04/06 07:55:55;;;;;;;8.68;3.05;;;;;;;;;;5051319;28;20021;-68
2023/04/06 07:58:21;;;;;;;2.95;2.22;;;;;;;;;;5051341;28;20021;-68
2023/04/06 08:00:48;;;;;;;8.15;2.40;;;;;;;;;;5050317;28;20032;-68
2023/04/06 08:03:14;;;;;;;4.88;2.50;;;;;;;;;;5050812;28;20045;-68
2023/04/06 08:05:41;;;;;;;5.32;2.42;;;;;;;;;;5050821;28;20047;-70
2023/04/06 08:08:07;;;;;;;5.68;2.10;;;;;;;;;;5051261;28;20031;-68
2023/04/06 08:10:34;;;;;;;6.22;2.45;;;;;;;;;;5042149;28;20396;-68
2023/04/06 08:13:01;;;;;;;4.65;2.10;;;;;;;;;;5050537;28;20024;-69
2023/04/06 08:15:27;;;;;;;5.95;1.90;;;;;;;;;;5050161;28;20014;-68
2023/04/06 08:17:56;;;;;;;4.70;2.38;;;;;;;;;;5037923;28;20033;-69
2023/04/06 08:20:23;;;;;;;2.17;1.90;;;;;;;;;;5048966;28;20029;-68
2023/04/06 08:22:49;;;;;;;3.92;2.40;;;;;;;;;;5046016;28;20404;-68
2023/04/06 08:25:15;;;;;;;4.88;1.88;;;;;;;;;;5047884;28;20036;-69
2023/04/06 08:27:42;;;;;;;4.38;1.80;;;;;;;;;;5050441;28;20029;-69
2023/04/06 08:30:08;;;;;;;8.85;2.30;;;;;;;;;;5049122;28;20033;-68
2023/04/06 08:32:35;;;;;;;3.70;2.05;;;;;;;;;;5048150;28;20217;-69
2023/04/06 08:35:02;;;;;;;5.30;1.88;;;;;;;;;;5046230;28;20035;-69
2023/04/06 08:37:28;;;;;;;3.47;2.13;;;;;;;;;;5050111;28;20017;-69
2023/04/06 08:39:54;;;;;;;8.35;2.15;;;;;;;;;;5040648;28;20025;-69
2023/04/06 08:42:21;;;;;;;7.35;2.65;;;;;;;;;;5047332;28;20601;-69
2023/04/06 08:44:51;;;;;;;5.60;2.10;;;;;;;;;;5049507;28;20039;-69
2023/04/06 08:47:17;;;;;;;3.08;2.10;;;;;;;;;;5047103;28;20026;-69
2023/04/06 08:49:44;;;;;;;5.28;2.05;;;;;;;;;;5048075;28;20024;-69
2023/04/06 08:52:11;;;;;;;4.10;1.83;;;;;;;;;;5048443;28;20066;-67
2023/04/06 08:54:38;;;;;;;2.60;2.13;;;;;;;;;;5047474;28;20035;-67
2023/04/06 08:57:05;;;;;;;6.13;2.42;;;;;;;;;;5047879;28;20040;-68
2023/04/06 08:59:36;;;;;;;4.80;2.00;;;;;;;;;;5045836;28;20028;-68
2023/04/06 09:02:07;;;;;;;2.58;1.85;;;;;;;;;;5048937;28;20051;-68
2023/04/06 09:04:34;;;;;;;3.85;1.90;;;;;;;;;;5047690;28;20147;-69
2023/04/06 09:07:01;;;;;;;2.63;2.17;;;;;;;;;;5049151;28;20478;-69
2023/04/06 09:09:27;;;;;;;4.13;1.90;;;;;;;;;;5043163;28;20033;-68
2023/04/06 09:11:54;;;;;;;3.50;2.38;;;;;;;;;;5044699;28;20036;-68
2023/04/06 09:14:37;;;;;;;3.38;2.15;;;;;;;;;;5044254;28;20397;-69
2023/04/06 09:17:04;;;;;;;3.75;2.10;;;;;;;;;;5048626;28;20033;-69
2023/04/06 09:19:31;;;;;;;2.92;2.28;;;;;;;;;;5054311;28;20029;-69
2023/04/06 09:22:04;;;;;;;2.15;1.88;;;;;;;;;;5053312;28;20032;-68
2023/04/06 09:24:40;;;;;;;2.95;2.30;;;;;;;;;;5050757;28;20037;-69
2023/04/06 09:27:06;;;;;;;6.05;2.00;;;;;;;;;;5044587;28;20465;-69
2023/04/06 09:29:33;;;;;;;3.30;2.25;;;;;;;;;;5049519;28;20037;-69
2023/04/06 09:32:06;;;;;;;6.75;2.25;;;;;;;;;;5044890;28;20033;-69
2023/04/06 09:34:34;;;;;;;4.35;2.58;;;;;;;;;;5033630;28;20043;-69
2023/04/06 09:37:01;;;;;;;5.47;2.38;;;;;;;;;;5033725;28;20025;-69
2023/04/06 09:39:28;;;;;;;5.88;2.30;;;;;;;;;;5042573;28;20072;-69
2023/04/06 09:41:56;;;;;;;4.05;2.47;;;;;;;;;;5045039;28;20436;-69
2023/04/06 09:44:23;;;;;;;3.80;2.60;;;;;;;;;;5048202;28;20031;-69
2023/04/06 09:46:50;;;;;;;2.95;2.33;;;;;;;;;;5046405;28;20021;-69
2023/04/06 09:49:16;;;;;;;5.63;2.38;;;;;;;;;;5037534;28;20520;-69
2023/04/06 09:51:42;;;;;;;5.25;2.20;;;;;;;;;;5050889;28;20490;-69
2023/04/06 09:54:10;;;;;;;5.32;2.58;;;;;;;;;;5041519;28;20021;-69
2023/04/06 09:56:51;;;;;;;4.28;2.20;;;;;;;;;;5041041;28;20055;-69
2023/04/06 09:59:23;;;;;;;4.20;2.08;;;;;;;;;;5045117;28;20033;-69
2023/04/06 10:01:51;;;;;;;3.03;2.25;;;;;;;;;;5036989;28;20028;-69
2023/04/06 10:04:17;;;;;;;4.18;2.53;;;;;;;;;;5047230;28;20033;-67
2023/04/06 10:06:44;;;;;;;3.10;2.30;;;;;;;;;;5050960;28;20025;-69
2023/04/06 10:09:11;;;;;;;3.03;2.10;;;;;;;;;;5050298;28;20749;-69
2023/04/06 10:11:37;;;;;;;3.13;2.30;;;;;;;;;;5051494;28;20024;-70
2023/04/06 10:14:04;;;;;;;2.78;1.90;;;;;;;;;;5052810;28;20086;-69
2023/04/06 10:16:31;;;;;;;2.35;1.90;;;;;;;;;;5049708;28;20019;-69
2023/04/06 10:19:00;;;;;;;2.53;2.10;;;;;;;;;;5046466;28;20036;-70
2023/04/06 10:21:28;;;;;;;2.30;2.10;;;;;;;;;;5043127;28;20029;-67
2023/04/06 10:24:02;;;;;;;2.83;2.10;;;;;;;;;;5049889;28;20284;-68
2023/04/06 10:26:28;;;;;;;3.67;2.50;;;;;;;;;;5047123;28;20025;-67
2023/04/06 10:28:55;;;;;;;3.38;1.90;;;;;;;;;;5044826;28;20453;-69
2023/04/06 10:31:26;;;;;;;3.20;1.65;;;;;;;;;;5048881;28;20049;-69
2023/04/06 10:34:00;;;;;;;3.17;1.70;;;;;;;;;;5075123;28;20035;-68
2023/04/06 10:36:33;;;;;;;3.63;1.67;;;;;;;;;;5052164;28;20013;-68
2023/04/06 10:39:00;;;;;;;1.60;1.50;;;;;;;;;;5051991;28;20028;-68
2023/04/06 10:41:56;;;;;;;3.13;1.83;;;;;;;;;;5052245;28;20021;-68
2023/04/06 10:44:23;;;;;;;2.67;1.58;;;;;;;;;;5042619;28;20088;-69
2023/04/06 10:47:02;;;;;;;2.92;1.52;;;;;;;;;;5034692;28;20436;-68
2023/04/06 10:49:28;;;;;;;3.00;1.70;;;;;;;;;;5045489;28;20023;-68
2023/04/06 10:51:55;;;;;;;1.95;1.63;;;;;;;;;;5044622;28;20017;-69
2023/04/06 10:54:24;;;;;;;2.33;1.75;;;;;;;;;;5044430;28;20025;-68
2023/04/06 10:56:50;;;;;;;6.65;1.80;;;;;;;;;;5040566;28;20385;-69
2023/04/06 10:59:24;;;;;;;2.40;1.63;;;;;;;;;;5042595;28;20063;-68
2023/04/06 11:01:51;;;;;;;2.22;1.98;;;;;;;;;;5052596;28;20409;-68
2023/04/06 11:04:18;;;;;;;1.70;1.60;;;;;;;;;;5052284;28;20043;-69
2023/04/06 11:06:51;;;;;;;1.50;1.40;;;;;;;;;;5052416;28;20512;-68
2023/04/06 11:09:44;;;;;;;1.67;1.55;;;;;;;;;;5045635;28;20036;-69
2023/04/06 11:12:20;;;;;;;1.50;1.40;;;;;;;;;;5031359;28;20044;-68
2023/04/06 11:15:01;;;;;;;2.00;1.50;;;;;;;;;;5032351;28;20029;-68
2023/04/06 11:17:31;;;;;;;1.95;1.73;;;;;;;;;;5032401;28;20383;-68
2023/04/06 11:19:58;;;;;;;8.63;2.05;;;;;;;;;;5032473;28;20064;-68
2023/04/06 11:22:25;;;;;;;4.75;1.83;;;;;;;;;;5032366;28;20398;-68
2023/04/06 11:24:51;;;;;;;2.05;1.50;;;;;;;;;;5032222;28;20041;-69
2023/04/06 11:27:18;;;;;;;2.67;1.60;;;;;;;;;;5032608;28;20071;-68
2023/04/06 11:29:49;;;;;;;3.60;1.23;;;;;;;;;;5032111;28;20064;-69
2023/04/06 11:32:23;;;;;;;1.63;1.40;;;;;;;;;;5032218;28;20470;-68
2023/04/06 11:34:49;;;;;;;1.40;1.10;;;;;;;;;;5038004;28;20031;-68
2023/04/06 11:37:16;;;;;;;2.65;0.90;;;;;;;;;;5044573;28;20349;-68
2023/04/06 11:39:47;;;;;;;1.30;0.98;;;;;;;;;;5044508;28;20024;-68
2023/04/06 11:42:21;;;;;;;0.90;0.90;;;;;;;;;;5047149;28;20029;-68
2023/04/06 11:44:50;;;;;;;1.10;1.00;;;;;;;;;;5049050;28;20505;-68
2023/04/06 11:47:16;;;;;;;1.05;0.90;;;;;;;;;;5049049;28;20041;-68
2023/04/06 11:49:47;;;;;;;2.88;0.88;;;;;;;;;;5046027;28;20025;-69
2023/04/06 11:52:17;;;;;;;2.50;1.00;;;;;;;;;;5048518;28;20020;-68
2023/04/06 11:54:44;;;;;;;0.90;0.90;;;;;;;;;;5040418;28;20029;-68
2023/04/06 11:57:10;;;;;;;1.10;0.73;;;;;;;;;;5043262;28;20015;-69
2023/04/06 11:59:36;;;;;;;1.10;0.88;;;;;;;;;;5042103;28;20021;-69
2023/04/06 12:02:03;;;;;;;0.95;0.95;;;;;;;;;;5048138;28;20078;-69
2023/04/06 12:04:30;;;;;;;1.90;0.95;;;;;;;;;;5050524;28;20033;-67
2023/04/06 12:06:56;;;;;;;1.40;0.82;;;;;;;;;;5046525;28;20030;-69
2023/04/06 12:09:23;;;;;;;0.63;0.63;;;;;;;;;;5044454;28;20026;-68
2023/04/06 12:11:49;;;;;;;1.25;0.98;;;;;;;;;;5031421;28;20021;-69
2023/04/06 12:14:15;;;;;;;1.05;1.00;;;;;;;;;;5041368;28;20028;-68
2023/04/06 12:16:42;;;;;;;0.90;0.90;;;;;;;;;;5051107;28;20066;-69
2023/04/06 12:19:08;;;;;;;2.55;1.20;;;;;;;;;;5051153;28;20035;-69
2023/04/06 12:21:38;;;;;;;1.10;1.10;;;;;;;;;;5049708;28;20017;-68
2023/04/06 12:24:05;;;;;;;0.98;0.98;;;;;;;;;;5050585;28;20444;-68
2023/04/06 12:26:32;;;;;;;1.30;1.20;;;;;;;;;;5050900;28;20522;-68
2023/04/06 12:29:06;;;;;;;1.00;1.00;;;;;;;;;;5051183;28;20017;-69
2023/04/06 12:31:33;;;;;;;1.20;1.10;;;;;;;;;;5051082;28;20056;-68
2023/04/06 12:34:00;;;;;;;1.00;1.00;;;;;;;;;;5045896;28;20059;-69
2023/04/06 12:36:27;;;;;;;1.13;1.02;;;;;;;;;;5039827;28;20029;-69
2023/04/06 12:38:53;;;;;;;0.80;0.80;;;;;;;;;;5041063;28;20031;-68
2023/04/06 12:41:20;;;;;;;1.35;1.17;;;;;;;;;;5042569;28;20029;-68
2023/04/06 12:43:46;;;;;;;1.40;1.30;;;;;;;;;;5046069;28;20025;-69
2023/04/06 12:46:13;;;;;;;1.05;0.80;;;;;;;;;;5038412;28;20039;-69
2023/04/06 12:48:40;;;;;;;0.90;0.90;;;;;;;;;;5044642;28;20074;-69
2023/04/06 12:51:06;;;;;;;1.73;1.20;;;;;;;;;;5049434;28;20382;-68
2023/04/06 12:53:33;;;;;;;4.40;0.98;;;;;;;;;;5046748;28;20029;-68
2023/04/06 12:56:00;;;;;;;0.93;0.90;;;;;;;;;;5052957;28;20021;-68
2023/04/06 12:58:27;;;;;;;1.30;1.20;;;;;;;;;;5053430;28;20037;-69
2023/04/06 13:00:53;;;;;;;0.80;0.80;;;;;;;;;;5048664;28;20025;-68
2023/04/06 13:03:22;;;;;;;1.10;1.00;;;;;;;;;;5045766;28;20037;-68
2023/04/06 13:05:49;;;;;;;0.88;0.88;;;;;;;;;;5049469;28;20029;-68
2023/04/06 13:08:16;;;;;;;0.77;0.77;;;;;;;;;;5049902;28;20033;-68
2023/04/06 13:10:47;;;;;;;1.13;0.77;;;;;;;;;;5054485;28;20029;-68
2023/04/06 13:13:17;;;;;;;0.73;0.70;;;;;;;;;;5053144;28;20020;-69
2023/04/06 13:15:44;;;;;;;0.87;0.70;;;;;;;;;;5055182;28;20033;-68
2023/04/06 13:18:11;;;;;;;0.70;0.70;;;;;;;;;;5047076;28;20032;-68
2023/04/06 13:20:37;;;;;;;0.80;0.80;;;;;;;;;;5050908;28;20041;-68
2023/04/06 13:23:04;;;;;;;1.38;0.80;;;;;;;;;;5050798;28;20036;-68
2023/04/06 13:25:32;;;;;;;0.98;0.80;;;;;;;;;;5041489;28;20555;-68
2023/04/06 13:27:58;;;;;;;1.23;0.60;;;;;;;;;;5047855;28;20033;-68
2023/04/06 13:30:25;;;;;;;0.77;0.77;;;;;;;;;;5043101;28;20051;-68
2023/04/06 13:32:51;;;;;;;1.23;0.70;;;;;;;;;;5042612;28;20024;-68
2023/04/06 13:35:18;;;;;;;1.00;0.70;;;;;;;;;;5039705;28;20413;-68
2023/04/06 13:37:45;;;;;;;1.73;0.95;;;;;;;;;;5043032;28;20037;-67
2023/04/06 13:40:11;;;;;;;3.25;0.90;;;;;;;;;;5046752;28;20017;-68
2023/04/06 13:42:39;;;;;;;4.28;0.85;;;;;;;;;;5048246;28;20082;-68
2023/04/06 13:45:06;;;;;;;2.67;1.00;;;;;;;;;;5052006;28;20170;-68
2023/04/06 13:47:32;;;;;;;7.22;0.80;;;;;;;;;;5053114;28;20028;-67
2023/04/06 13:49:59;;;;;;;0.60;0.60;;;;;;;;;;5053283;28;20017;-68
2023/04/06 13:52:25;;;;;;;0.93;0.50;;;;;;;;;;5053444;28;20405;-67
2023/04/06 13:54:52;;;;;;;1.13;0.63;;;;;;;;;;5052167;28;20032;-67
2023/04/06 13:57:19;;;;;;;3.03;0.82;;;;;;;;;;5053244;28;20033;-68
2023/04/06 13:59:45;;;;;;;1.75;0.70;;;;;;;;;;5053412;28;20041;-68
2023/04/06 14:02:11;;;;;;;1.25;0.80;;;;;;;;;;5053100;28;20021;-68
2023/04/06 14:04:38;;;;;;;0.70;0.70;;;;;;;;;;5053134;28;20037;-68
2023/04/06 14:07:07;;;;;;;0.95;0.85;;;;;;;;;;5052694;28;20043;-68
2023/04/06 14:09:33;;;;;;;0.80;0.80;;;;;;;;;;5042300;28;20031;-68
2023/04/06 14:12:00;;;;;;;0.65;0.65;;;;;;;;;;5053650;28;20029;-68
2023/04/06 14:14:26;;;;;;;0.55;0.50;;;;;;;;;;5052315;28;20032;-68
2023/04/06 14:16:54;;;;;;;0.60;0.55;;;;;;;;;;5049667;28;20572;-66
2023/04/06 14:19:23;;;;;;;1.45;1.35;;;;;;;;;;5052332;28;20051;-68
2023/04/06 14:21:50;;;;;;;0.55;0.55;;;;;;;;;;5051781;28;20033;-68
2023/04/06 14:24:18;;;;;;;1.75;0.75;;;;;;;;;;5052058;28;20040;-68
2023/04/06 14:26:45;;;;;;;1.13;0.60;;;;;;;;;;5052706;28;20020;-68
2023/04/06 14:29:11;;;;;;;3.60;0.70;;;;;;;;;;5052660;28;20036;-68
2023/04/06 14:31:38;;;;;;;2.85;0.73;;;;;;;;;;5053321;28;20029;-68
2023/04/06 14:34:04;;;;;;;1.17;0.73;;;;;;;;;;5053291;28;20035;-68
2023/04/06 14:36:38;;;;;;;2.25;0.80;;;;;;;;;;5053113;28;20020;-68
2023/04/06 14:39:04;;;;;;;1.08;0.60;;;;;;;;;;5050632;28;20020;-68
2023/04/06 14:41:31;;;;;;;0.68;0.68;;;;;;;;;;5053087;28;20031;-68
2023/04/06 14:43:58;;;;;;;2.28;0.60;;;;;;;;;;5053908;28;20420;-68